ACA348 CYVR-CYOW
Flight info
| Callsign | ACA348 |
|---|---|
| Flight time | N/A |
| Altitude | 33000 |
| Route | ALNOD DCT IKNIX DCT 49N110W DCT HML/N0455F350 DCT AGLIN DCT SMARE MEECH4 |
| Aircraft | A321/M-SDE3FGHIJ7M3P2RWY/LB1 |
Departure
| Time | N/A |
|---|---|
| Airport | Vancouver International Airport (CYVR) |
Arrival
| Time | 2026-05-06 16:50 |
|---|---|
| Airport | Ottawa Macdonald-Cartier International Airport (CYOW) |
| Time | Latitude | Longitude | Altitude | Speed | Heading |
|---|---|---|---|---|---|
| 2026-05-06 16:28 | 46.20739 | -77.83107 | 34136 ft | 473 kts | 126° |
| 2026-05-06 16:28 | 46.19214 | -77.78896 | 33885 ft | 472 kts | 126° |
| 2026-05-06 16:29 | 46.17697 | -77.74700 | 33273 ft | 471 kts | 126° |
| 2026-05-06 16:29 | 46.16188 | -77.70514 | 32692 ft | 468 kts | 126° |
| 2026-05-06 16:29 | 46.14709 | -77.66412 | 32105 ft | 466 kts | 126° |
| 2026-05-06 16:29 | 46.13216 | -77.62275 | 31517 ft | 465 kts | 126° |
| 2026-05-06 16:30 | 46.11724 | -77.58145 | 30937 ft | 463 kts | 126° |
| 2026-05-06 16:30 | 46.10721 | -77.55364 | 30546 ft | 462 kts | 126° |
| 2026-05-06 16:30 | 46.08763 | -77.49941 | 29760 ft | 460 kts | 126° |
| 2026-05-06 16:30 | 46.07285 | -77.45874 | 29156 ft | 456 kts | 126° |
| 2026-05-06 16:31 | 46.05813 | -77.41836 | 28599 ft | 452 kts | 126° |
| 2026-05-06 16:31 | 46.04358 | -77.37844 | 28039 ft | 449 kts | 126° |
| 2026-05-06 16:31 | 46.02908 | -77.33867 | 27504 ft | 446 kts | 126° |
| 2026-05-06 16:31 | 46.01472 | -77.29936 | 26964 ft | 443 kts | 126° |
| 2026-05-06 16:32 | 46.00059 | -77.26079 | 26443 ft | 440 kts | 126° |
| 2026-05-06 16:32 | 45.98615 | -77.22151 | 25898 ft | 436 kts | 126° |
| 2026-05-06 16:32 | 45.97224 | -77.18380 | 25438 ft | 432 kts | 126° |
| 2026-05-06 16:32 | 45.95817 | -77.14576 | 24943 ft | 428 kts | 126° |
| 2026-05-06 16:33 | 45.94422 | -77.10802 | 24464 ft | 425 kts | 126° |
| 2026-05-06 16:33 | 45.93039 | -77.07058 | 23990 ft | 423 kts | 126° |
| 2026-05-06 16:33 | 45.91666 | -77.03339 | 23546 ft | 420 kts | 126° |
| 2026-05-06 16:34 | 45.88948 | -76.95992 | 22596 ft | 412 kts | 126° |
| 2026-05-06 16:34 | 45.87612 | -76.92383 | 22150 ft | 407 kts | 126° |
| 2026-05-06 16:34 | 45.86289 | -76.88816 | 21672 ft | 403 kts | 126° |
| 2026-05-06 16:34 | 45.84973 | -76.85289 | 21260 ft | 398 kts | 126° |
| 2026-05-06 16:35 | 45.83669 | -76.81802 | 20807 ft | 395 kts | 126° |
| 2026-05-06 16:35 | 45.82373 | -76.78339 | 20359 ft | 392 kts | 126° |
| 2026-05-06 16:35 | 45.81089 | -76.74904 | 19918 ft | 390 kts | 126° |
| 2026-05-06 16:35 | 45.79810 | -76.71484 | 19461 ft | 387 kts | 126° |
| 2026-05-06 16:36 | 45.78544 | -76.68096 | 18995 ft | 385 kts | 126° |
| 2026-05-06 16:36 | 45.77301 | -76.64777 | 18680 ft | 379 kts | 126° |
| 2026-05-06 16:36 | 45.76059 | -76.61474 | 18269 ft | 376 kts | 126° |
| 2026-05-06 16:36 | 45.74800 | -76.58145 | 17794 ft | 374 kts | 126° |
| 2026-05-06 16:37 | 45.73585 | -76.54930 | 17339 ft | 370 kts | 126° |
| 2026-05-06 16:37 | 45.72370 | -76.51709 | 16945 ft | 366 kts | 126° |
| 2026-05-06 16:37 | 45.71162 | -76.48512 | 16525 ft | 363 kts | 126° |
| 2026-05-06 16:37 | 45.69970 | -76.45351 | 16132 ft | 360 kts | 126° |
| 2026-05-06 16:38 | 45.68783 | -76.42212 | 15721 ft | 357 kts | 126° |
| 2026-05-06 16:38 | 45.67603 | -76.39100 | 15324 ft | 355 kts | 126° |
| 2026-05-06 16:38 | 45.66429 | -76.36008 | 14928 ft | 353 kts | 126° |
| 2026-05-06 16:38 | 45.65254 | -76.32931 | 14527 ft | 352 kts | 126° |
| 2026-05-06 16:39 | 45.64084 | -76.29874 | 14127 ft | 350 kts | 126° |
| 2026-05-06 16:39 | 45.62916 | -76.26822 | 13721 ft | 350 kts | 126° |
| 2026-05-06 16:39 | 45.61748 | -76.23778 | 13281 ft | 349 kts | 126° |
| 2026-05-06 16:39 | 45.60590 | -76.20744 | 12852 ft | 347 kts | 125° |
| 2026-05-06 16:40 | 45.59443 | -76.17737 | 12462 ft | 344 kts | 124° |
| 2026-05-06 16:40 | 45.58670 | -76.15713 | 12187 ft | 342 kts | 124° |
| 2026-05-06 16:40 | 45.57535 | -76.12751 | 11788 ft | 340 kts | 124° |
| 2026-05-06 16:40 | 45.56417 | -76.09833 | 11372 ft | 338 kts | 123° |
| 2026-05-06 16:41 | 45.55566 | -76.06593 | 10613 ft | 353 kts | 105° |
| 2026-05-06 16:41 | 45.55078 | -76.03199 | 10183 ft | 351 kts | 104° |
| 2026-05-06 16:41 | 45.54601 | -75.99842 | 10073 ft | 339 kts | 103° |
| 2026-05-06 16:41 | 45.54144 | -75.96615 | 9963 ft | 326 kts | 103° |
| 2026-05-06 16:42 | 45.53692 | -75.93431 | 9408 ft | 330 kts | 103° |
| 2026-05-06 16:42 | 45.53235 | -75.90209 | 8866 ft | 332 kts | 103° |
| 2026-05-06 16:42 | 45.52774 | -75.86980 | 8344 ft | 332 kts | 103° |
| 2026-05-06 16:42 | 45.52313 | -75.83758 | 8001 ft | 328 kts | 103° |
| 2026-05-06 16:43 | 45.51867 | -75.80625 | 7710 ft | 321 kts | 103° |
| 2026-05-06 16:43 | 45.51420 | -75.77498 | 6878 ft | 319 kts | 102° |
| 2026-05-06 16:43 | 45.50983 | -75.74468 | 6321 ft | 304 kts | 101° |
| 2026-05-06 16:43 | 45.50563 | -75.71592 | 5840 ft | 289 kts | 101° |
| 2026-05-06 16:44 | 45.50156 | -75.68831 | 5392 ft | 281 kts | 101° |
| 2026-05-06 16:44 | 45.49766 | -75.66186 | 5211 ft | 260 kts | 101° |
| 2026-05-06 16:44 | 45.49410 | -75.63765 | 5156 ft | 244 kts | 101° |
| 2026-05-06 16:44 | 45.49062 | -75.61404 | 5105 ft | 242 kts | 101° |
| 2026-05-06 16:45 | 45.48717 | -75.59056 | 5048 ft | 241 kts | 101° |
| 2026-05-06 16:45 | 45.48372 | -75.56710 | 5002 ft | 241 kts | 101° |
| 2026-05-06 16:45 | 45.47987 | -75.54420 | 4941 ft | 240 kts | 110° |
| 2026-05-06 16:45 | 45.47164 | -75.52360 | 4748 ft | 240 kts | 131° |
| 2026-05-06 16:46 | 45.45907 | -75.50836 | 4439 ft | 237 kts | 150° |
| 2026-05-06 16:46 | 45.44502 | -75.49602 | 4107 ft | 237 kts | 149° |
| 2026-05-06 16:46 | 45.43104 | -75.48357 | 3778 ft | 237 kts | 148° |
| 2026-05-06 16:46 | 45.41655 | -75.47368 | 3453 ft | 226 kts | 174° |
| 2026-05-06 16:47 | 45.40202 | -75.47775 | 3146 ft | 209 kts | 217° |
| 2026-05-06 16:47 | 45.39307 | -75.49295 | 2880 ft | 198 kts | 239° |
| 2026-05-06 16:47 | 45.38593 | -75.50902 | 2616 ft | 185 kts | 239° |
| 2026-05-06 16:47 | 45.37928 | -75.52392 | 2363 ft | 173 kts | 238° |
| 2026-05-06 16:48 | 45.37314 | -75.53763 | 2123 ft | 163 kts | 238° |
| 2026-05-06 16:48 | 45.36713 | -75.55103 | 1897 ft | 159 kts | 238° |
| 2026-05-06 16:48 | 45.36121 | -75.56421 | 1692 ft | 158 kts | 238° |
| 2026-05-06 16:48 | 45.35542 | -75.57708 | 1486 ft | 147 kts | 238° |
| 2026-05-06 16:49 | 45.35007 | -75.58899 | 1290 ft | 140 kts | 238° |
| 2026-05-06 16:49 | 45.34495 | -75.60049 | 1103 ft | 137 kts | 237° |
| 2026-05-06 16:49 | 45.33993 | -75.61202 | 938 ft | 138 kts | 237° |
| 2026-05-06 16:49 | 45.33486 | -75.62349 | 790 ft | 136 kts | 236° |
| 2026-05-06 16:50 | 45.32972 | -75.63483 | 623 ft | 136 kts | 235° |
| 2026-05-06 16:50 | 45.32460 | -75.64609 | 410 ft | 134 kts | 235° |
| 2026-05-06 16:50 | 45.32009 | -75.65602 | 380 ft | 86 kts | 238° |
| 2026-05-06 16:50 | 45.31811 | -75.66049 | 383 ft | 33 kts | 238° |
| 2026-05-06 16:51 | 45.31731 | -75.66237 | 384 ft | 5 kts | 244° |
| 2026-05-06 16:51 | 45.31733 | -75.66293 | 385 ft | 6 kts | 294° |
| 2026-05-06 16:51 | 45.31761 | -75.66346 | 387 ft | 6 kts | 307° |
| 2026-05-06 16:51 | 45.31781 | -75.66385 | 388 ft | 4 kts | 306° |
| 2026-05-06 16:52 | 45.31810 | -75.66440 | 388 ft | 9 kts | 307° |
| 2026-05-06 16:52 | 45.31858 | -75.66480 | 387 ft | 8 kts | 350° |
| 2026-05-06 16:52 | 45.31898 | -75.66508 | 388 ft | 5 kts | 317° |
| 2026-05-06 16:52 | 45.31914 | -75.66536 | 389 ft | 2 kts | 309° |
| 2026-05-06 16:53 | 45.31927 | -75.66560 | 389 ft | 4 kts | 304° |
| 2026-05-06 16:53 | 45.31935 | -75.66578 | 390 ft | 1 kts | 306° |
| 2026-05-06 16:53 | 45.31951 | -75.66607 | 390 ft | 8 kts | 306° |
| 2026-05-06 16:53 | 45.31989 | -75.66681 | 390 ft | 10 kts | 306° |
| 2026-05-06 16:54 | 45.32029 | -75.66759 | 389 ft | 10 kts | 307° |
| 2026-05-06 16:54 | 45.32073 | -75.66821 | 390 ft | 8 kts | 338° |
| 2026-05-06 16:54 | 45.32114 | -75.66802 | 389 ft | 2 kts | 37° |
| 2026-05-06 16:54 | 45.32125 | -75.66790 | 389 ft | 2 kts | 36° |
| 2026-05-06 16:55 | 45.32139 | -75.66775 | 389 ft | 2 kts | 37° |
| 2026-05-06 16:55 | 45.32146 | -75.66768 | 389 ft | 1 kts | 37° |
| 2026-05-06 16:55 | 45.32152 | -75.66762 | 389 ft | 1 kts | 37° |
| 2026-05-06 16:55 | 45.32152 | -75.66761 | 389 ft | 0 kts | 37° |